createdAt,value
2022-10-19T00:01:54.080Z,11.31
2022-10-19T00:04:22.535Z,11.37
2022-10-19T00:06:54.687Z,11.39
2022-10-19T00:09:24.328Z,11.42
2022-10-19T00:11:54.021Z,11.26
2022-10-19T00:14:25.466Z,11.32
2022-10-19T00:16:56.209Z,11.23
2022-10-19T00:19:29.585Z,11.27
2022-10-19T00:21:59.734Z,11.28
2022-10-19T00:24:28.623Z,11.28
2022-10-19T00:26:58.936Z,11.25
2022-10-19T00:29:32.151Z,11.22
2022-10-19T00:32:05.293Z,11.17
2022-10-19T00:34:36.297Z,11.15
2022-10-19T00:37:05.445Z,11.16
2022-10-19T00:39:34.348Z,11.12
2022-10-19T00:42:02.731Z,11.10
2022-10-19T00:45:06.941Z,10.91
2022-10-19T00:47:36.909Z,10.94
2022-10-19T00:50:07.820Z,10.91
2022-10-19T00:52:38.185Z,11.01
2022-10-19T00:55:09.880Z,10.93
2022-10-19T00:57:38.508Z,10.93
2022-10-19T01:00:10.561Z,10.86
2022-10-19T01:02:41.156Z,10.90
2022-10-19T01:05:11.683Z,11.07
2022-10-19T01:07:40.474Z,10.82
2022-10-19T01:10:10.884Z,10.85
2022-10-19T01:12:59.459Z,10.83
2022-10-19T01:15:42.110Z,10.87
2022-10-19T01:18:23.442Z,10.98
2022-10-19T01:21:17.558Z,10.92
2022-10-19T01:24:30.024Z,11.08
2022-10-19T01:27:51.796Z,11.06
2022-10-19T01:30:53.278Z,11.11
2022-10-19T01:33:44.078Z,11.30
2022-10-19T01:36:24.388Z,11.32
2022-10-19T01:39:02.794Z,11.11
2022-10-19T01:41:45.322Z,11.28
2022-10-19T01:44:21.230Z,11.32
2022-10-19T01:46:55.969Z,11.44
2022-10-19T01:49:33.689Z,11.48
2022-10-19T01:52:08.387Z,11.67
2022-10-19T01:54:49.268Z,11.61
2022-10-19T01:57:23.737Z,11.50
2022-10-19T01:59:55.107Z,11.65
2022-10-19T02:02:27.632Z,11.64
2022-10-19T02:04:59.585Z,11.51
2022-10-19T02:07:29.049Z,11.50
2022-10-19T02:09:58.298Z,11.55
2022-10-19T02:12:30.306Z,11.37
2022-10-19T02:15:04.238Z,11.51
2022-10-19T02:17:42.140Z,11.48
2022-10-19T02:20:13.254Z,11.33
2022-10-19T02:22:42.994Z,11.42
2022-10-19T02:25:13.023Z,11.28
2022-10-19T02:27:45.502Z,11.26
2022-10-19T02:30:19.464Z,11.25
2022-10-19T02:33:01.530Z,11.18
2022-10-19T02:35:30.577Z,11.13
2022-10-19T02:38:03.049Z,11.05
2022-10-19T02:40:41.930Z,11.01
2022-10-19T02:43:19.459Z,10.92
2022-10-19T02:45:55.531Z,10.71
2022-10-19T02:48:31.386Z,10.80
2022-10-19T02:51:00.142Z,10.70
2022-10-19T02:53:28.525Z,10.67
2022-10-19T02:55:57.880Z,10.66
2022-10-19T02:58:27.155Z,10.70
2022-10-19T03:00:56.427Z,10.62
2022-10-19T03:03:27.050Z,10.69
2022-10-19T03:05:57.294Z,10.66
2022-10-19T03:08:26.229Z,10.66
2022-10-19T03:10:56.195Z,10.66
2022-10-19T03:13:30.407Z,10.63
2022-10-19T03:16:06.867Z,10.55
2022-10-19T03:18:38.569Z,10.39
2022-10-19T03:21:09.815Z,10.32
2022-10-19T03:23:39.674Z,10.33
2022-10-19T03:26:12.133Z,10.37
2022-10-19T03:28:56.590Z,10.33
2022-10-19T03:31:27.584Z,10.28
2022-10-19T03:33:57.518Z,10.33
2022-10-19T03:36:28.696Z,10.26
2022-10-19T03:39:00.352Z,10.31
2022-10-19T03:41:31.397Z,10.26
2022-10-19T03:46:32.246Z,10.17
2022-10-19T03:49:04.543Z,10.19
2022-10-19T03:51:34.176Z,10.19
2022-10-19T03:54:09.303Z,10.03
2022-10-19T03:56:38.565Z,10.22
2022-10-19T03:59:08.420Z,10.17
2022-10-19T04:01:40.542Z,10.11
2022-10-19T04:04:16.931Z,10.14
2022-10-19T04:06:50.220Z,10.11
2022-10-19T04:09:21.579Z,10.08
2022-10-19T04:11:51.363Z,10.06
2022-10-19T04:14:32.333Z,10.08
2022-10-19T04:17:01.846Z,9.96
2022-10-19T04:19:32.569Z,9.97
2022-10-19T04:22:01.206Z,9.91
2022-10-19T04:24:31.278Z,9.98
2022-10-19T04:26:59.598Z,10.09
2022-10-19T04:29:30.890Z,10.05
2022-10-19T04:32:03.113Z,9.98
2022-10-19T04:34:37.728Z,9.88
2022-10-19T04:37:10.662Z,9.90
2022-10-19T04:39:41.184Z,9.89
2022-10-19T04:42:15.632Z,9.89
2022-10-19T04:44:44.837Z,9.87
2022-10-19T04:47:14.853Z,9.88
2022-10-19T04:49:45.266Z,9.80
2022-10-19T04:52:13.986Z,9.81
2022-10-19T04:54:43.750Z,9.76
2022-10-19T04:57:15.241Z,9.68
2022-10-19T04:59:46.227Z,9.72
2022-10-19T05:02:15.170Z,9.89
2022-10-19T05:04:45.743Z,9.71
2022-10-19T05:07:14.839Z,9.77
2022-10-19T05:09:45.639Z,9.61
2022-10-19T05:12:23.650Z,9.78
2022-10-19T05:14:55.124Z,9.82
2022-10-19T05:17:25.872Z,9.81
2022-10-19T05:19:57.515Z,9.66
2022-10-19T05:22:26.738Z,9.81
2022-10-19T05:25:17.143Z,9.70
2022-10-19T05:27:46.772Z,9.81
2022-10-19T05:30:15.541Z,9.82
2022-10-19T05:32:44.979Z,9.79
2022-10-19T05:35:18.755Z,9.84
2022-10-19T05:37:50.375Z,9.74
2022-10-19T05:40:20.277Z,9.70
2022-10-19T05:42:48.768Z,9.75
2022-10-19T05:45:18.443Z,9.74
2022-10-19T05:47:47.997Z,9.67
2022-10-19T05:50:18.038Z,9.65
2022-10-19T05:52:46.597Z,9.56
2022-10-19T05:55:15.697Z,9.56
2022-10-19T05:57:46.284Z,9.64
2022-10-19T06:00:17.047Z,9.55
2022-10-19T06:02:48.071Z,9.54
2022-10-19T06:05:19.584Z,9.56
2022-10-19T06:07:48.539Z,9.45
2022-10-19T06:10:19.351Z,9.49
2022-10-19T06:12:50.602Z,9.45
2022-10-19T06:15:20.882Z,9.43
2022-10-19T06:17:49.418Z,9.48
2022-10-19T06:20:19.503Z,9.45
2022-10-19T06:22:48.017Z,9.44
2022-10-19T06:25:20.241Z,9.39
2022-10-19T06:27:50.639Z,9.38
2022-10-19T06:30:21.603Z,9.51
2022-10-19T06:32:54.204Z,9.52
2022-10-19T06:35:31.171Z,9.69
2022-10-19T06:37:59.955Z,9.70
2022-10-19T06:40:30.427Z,9.78
2022-10-19T06:42:59.402Z,9.82
2022-10-19T06:45:32.228Z,9.91
2022-10-19T06:48:07.494Z,9.94
2022-10-19T06:50:38.876Z,10.07
2022-10-19T06:53:07.300Z,10.12
2022-10-19T06:55:53.875Z,10.16
2022-10-19T06:58:23.654Z,10.31
2022-10-19T07:01:02.546Z,10.42
2022-10-19T07:03:36.767Z,10.43
2022-10-19T07:06:11.364Z,10.50
2022-10-19T07:08:43.716Z,10.56
2022-10-19T07:11:19.871Z,10.78
2022-10-19T07:13:48.730Z,10.85
2022-10-19T07:16:22.288Z,10.99
2022-10-19T07:18:53.766Z,11.05
2022-10-19T07:21:27.078Z,11.26
2022-10-19T07:23:57.151Z,11.44
2022-10-19T07:26:30.603Z,11.58
2022-10-19T07:28:59.784Z,11.69
2022-10-19T07:31:30.341Z,11.90
2022-10-19T07:34:02.345Z,11.90
2022-10-19T07:36:37.172Z,12.10
2022-10-19T07:39:09.477Z,12.22
2022-10-19T07:41:38.381Z,12.37
2022-10-19T07:44:08.242Z,12.24
2022-10-19T07:46:39.862Z,12.61
2022-10-19T07:49:11.442Z,12.95
2022-10-19T07:51:42.248Z,13.16
2022-10-19T07:54:10.810Z,13.34
2022-10-19T07:56:45.816Z,13.39
2022-10-19T07:59:17.207Z,13.63
2022-10-19T08:01:47.649Z,13.62
2022-10-19T08:07:08.181Z,14.22
2022-10-19T08:09:54.847Z,14.05
2022-10-19T08:12:28.349Z,14.20
2022-10-19T08:14:56.606Z,14.54
2022-10-19T08:17:25.005Z,14.72
2022-10-19T08:19:54.413Z,14.53
2022-10-19T08:22:24.484Z,15.00
2022-10-19T08:24:54.604Z,14.94
2022-10-19T08:27:23.744Z,15.22
2022-10-19T08:29:52.834Z,15.07
2022-10-19T08:32:23.031Z,15.32
2022-10-19T08:34:51.850Z,15.64
2022-10-19T08:37:39.976Z,15.67
2022-10-19T08:40:22.154Z,15.90
2022-10-19T08:43:00.103Z,15.61
2022-10-19T08:45:43.043Z,15.75
2022-10-19T08:48:32.991Z,15.92
2022-10-19T08:51:03.074Z,16.45
2022-10-19T08:53:46.167Z,16.31
2022-10-19T08:56:50.958Z,16.22
2022-10-19T08:59:32.889Z,15.99
2022-10-19T09:02:05.896Z,16.55
2022-10-19T09:04:39.314Z,16.61
2022-10-19T09:07:48.734Z,16.60
2022-10-19T09:10:25.945Z,17.08
2022-10-19T09:13:03.110Z,17.15
2022-10-19T09:15:42.407Z,17.10
2022-10-19T09:18:13.999Z,17.23
2022-10-19T09:20:49.508Z,17.37
2022-10-19T09:23:26.117Z,17.55
2022-10-19T09:25:58.142Z,17.27
2022-10-19T09:31:40.678Z,17.87
2022-10-19T09:34:26.541Z,18.21
2022-10-19T09:36:59.123Z,17.69
2022-10-19T09:39:30.757Z,17.92
2022-10-19T09:42:02.702Z,18.28
2022-10-19T09:44:34.150Z,18.41
2022-10-19T09:47:33.640Z,18.61
2022-10-19T09:50:19.100Z,19.30
2022-10-19T09:52:49.690Z,19.45
2022-10-19T09:55:37.322Z,19.00
2022-10-19T09:58:18.457Z,19.14
2022-10-19T10:00:57.740Z,19.10
2022-10-19T10:03:41.862Z,18.79
2022-10-19T10:06:16.165Z,18.26
2022-10-19T10:08:50.859Z,18.68
2022-10-19T10:11:32.901Z,19.18
2022-10-19T10:14:17.854Z,18.54
2022-10-19T10:16:50.482Z,17.72
2022-10-19T10:19:23.174Z,18.22
2022-10-19T10:21:58.676Z,18.34
2022-10-19T10:24:30.262Z,18.26
2022-10-19T10:27:04.322Z,18.85
2022-10-19T10:32:33.861Z,18.23
2022-10-19T10:35:09.777Z,18.03
2022-10-19T10:37:46.150Z,18.67
2022-10-19T10:40:25.994Z,17.91
2022-10-19T10:43:04.342Z,18.55
2022-10-19T10:45:39.657Z,18.17
2022-10-19T10:48:29.533Z,18.67
2022-10-19T10:51:03.397Z,18.85
2022-10-19T10:53:38.889Z,18.21
2022-10-19T10:56:26.212Z,19.04
2022-10-19T10:59:04.527Z,18.54
2022-10-19T11:01:41.703Z,18.91
2022-10-19T11:04:17.843Z,18.99
2022-10-19T11:06:57.343Z,19.43
2022-10-19T11:09:32.551Z,19.57
2022-10-19T11:12:04.131Z,19.80
2022-10-19T11:14:47.614Z,19.90
2022-10-19T11:17:22.383Z,19.80
2022-10-19T11:19:57.515Z,19.51
2022-10-19T11:22:34.413Z,20.00
2022-10-19T11:25:33.169Z,19.29
2022-10-19T11:28:27.623Z,19.41
2022-10-19T11:31:07.856Z,19.41
2022-10-19T11:34:03.569Z,19.10
2022-10-19T11:36:53.278Z,19.32
2022-10-19T11:39:49.567Z,19.83
2022-10-19T11:42:30.628Z,20.13
2022-10-19T11:45:23.532Z,19.24
2022-10-19T11:51:22.174Z,19.82
2022-10-19T11:54:23.381Z,19.53
2022-10-19T11:57:17.382Z,19.66
2022-10-19T12:00:21.214Z,18.97
2022-10-19T12:03:43.971Z,19.05
2022-10-19T12:06:23.089Z,19.52
2022-10-19T12:09:10.643Z,18.90
2022-10-19T12:12:01.790Z,19.13
2022-10-19T12:14:38.950Z,19.35
2022-10-19T12:17:17.391Z,19.72
2022-10-19T12:19:53.344Z,19.44
2022-10-19T12:22:27.305Z,19.39
2022-10-19T12:24:59.127Z,19.69
2022-10-19T12:27:37.403Z,19.81
2022-10-19T12:30:15.759Z,19.91
2022-10-19T12:33:04.287Z,19.56
2022-10-19T12:36:06.005Z,19.81
2022-10-19T12:38:50.941Z,19.70
2022-10-19T12:41:31.530Z,19.89
2022-10-19T12:44:26.026Z,18.86
2022-10-19T12:47:01.827Z,20.00
2022-10-19T12:49:45.526Z,19.91
2022-10-19T12:52:18.704Z,20.19
2022-10-19T12:54:48.322Z,19.58
2022-10-19T12:57:29.914Z,19.80
2022-10-19T13:00:21.046Z,20.38
2022-10-19T13:02:58.647Z,20.05
2022-10-19T13:05:30.495Z,20.26
2022-10-19T13:08:04.119Z,20.62
2022-10-19T13:10:34.592Z,20.13
2022-10-19T13:13:04.774Z,20.66
2022-10-19T13:15:59.694Z,19.16
2022-10-19T13:19:21.803Z,19.79
2022-10-19T13:22:13.817Z,20.12
2022-10-19T13:24:42.734Z,19.71
2022-10-19T13:27:45.078Z,19.61
2022-10-19T13:31:09.169Z,20.18
2022-10-19T13:33:52.620Z,20.41
2022-10-19T13:36:23.947Z,20.58
2022-10-19T13:39:16.722Z,20.49
2022-10-19T13:41:54.706Z,20.37
2022-10-19T13:44:37.452Z,20.55
2022-10-19T13:47:41.423Z,19.94
2022-10-19T13:50:38.745Z,20.22
2022-10-19T13:53:32.112Z,20.32
2022-10-19T13:56:33.237Z,20.66
2022-10-19T13:59:40.701Z,20.33
2022-10-19T14:02:57.279Z,20.84
2022-10-19T14:06:04.776Z,20.65
2022-10-19T14:09:31.008Z,20.83
2022-10-19T14:12:09.427Z,20.51
2022-10-19T14:17:24.316Z,20.64
2022-10-19T14:19:57.166Z,20.14
2022-10-19T14:22:30.266Z,20.26
2022-10-19T14:25:09.020Z,20.44
2022-10-19T14:27:38.352Z,20.26
2022-10-19T14:30:21.646Z,20.04
2022-10-19T14:32:56.888Z,21.02
2022-10-19T14:35:34.477Z,20.91
2022-10-19T14:38:05.553Z,20.64
2022-10-19T14:40:39.517Z,20.19
2022-10-19T14:43:24.065Z,20.27
2022-10-19T14:46:19.382Z,20.03
2022-10-19T14:48:50.275Z,20.42
2022-10-19T14:51:34.565Z,19.73
2022-10-19T14:54:09.086Z,20.37
2022-10-19T14:56:45.860Z,20.61
2022-10-19T14:59:25.599Z,20.13
2022-10-19T15:01:59.192Z,20.18
2022-10-19T15:04:31.730Z,19.78
2022-10-19T15:07:05.616Z,19.93
2022-10-19T15:09:48.258Z,20.26
2022-10-19T15:12:24.672Z,19.93
2022-10-19T15:14:53.399Z,19.79
2022-10-19T15:17:36.467Z,19.72
2022-10-19T15:20:05.910Z,19.93
2022-10-19T15:22:44.078Z,19.82
2022-10-19T15:25:36.859Z,19.58
2022-10-19T15:28:37.425Z,18.96
2022-10-19T15:31:22.263Z,19.12
2022-10-19T15:33:59.515Z,18.86
2022-10-19T15:36:34.373Z,19.42
2022-10-19T15:39:18.496Z,18.82
2022-10-19T15:41:55.366Z,18.80
2022-10-19T15:44:41.397Z,19.03
2022-10-19T15:47:25.349Z,18.90
2022-10-19T15:50:00.629Z,18.80
2022-10-19T15:52:34.330Z,18.71
2022-10-19T15:58:46.991Z,18.38
2022-10-19T16:01:22.584Z,18.33
2022-10-19T16:03:51.514Z,17.51
2022-10-19T16:06:21.732Z,17.60
2022-10-19T16:08:51.522Z,17.82
2022-10-19T16:14:22.248Z,17.45
2022-10-19T16:16:51.898Z,16.95
2022-10-19T16:19:20.999Z,17.34
2022-10-19T16:21:50.477Z,16.98
2022-10-19T16:24:23.016Z,17.13
2022-10-19T16:26:51.980Z,17.19
2022-10-19T16:29:28.142Z,16.31
2022-10-19T16:31:59.329Z,16.78
2022-10-19T16:34:28.993Z,16.38
2022-10-19T16:36:57.873Z,16.32
2022-10-19T16:39:28.698Z,16.35
2022-10-19T16:41:57.634Z,16.23
2022-10-19T16:44:27.640Z,16.50
2022-10-19T16:46:59.266Z,16.54
2022-10-19T16:49:29.208Z,16.35
2022-10-19T16:51:58.937Z,15.91
2022-10-19T16:54:32.899Z,15.78
2022-10-19T16:57:03.714Z,15.90
2022-10-19T16:59:38.554Z,15.97
2022-10-19T17:02:07.285Z,16.02
2022-10-19T17:04:38.074Z,15.96
2022-10-19T17:09:54.665Z,15.64
2022-10-19T17:12:24.854Z,16.02
2022-10-19T17:15:11.636Z,15.99
2022-10-19T17:17:46.625Z,16.08
2022-10-19T17:20:16.059Z,15.60
2022-10-19T17:22:45.567Z,15.48
2022-10-19T17:25:14.516Z,15.73
2022-10-19T17:27:43.981Z,15.64
2022-10-19T17:30:15.363Z,15.56
2022-10-19T17:32:44.040Z,15.29
2022-10-19T17:35:12.704Z,15.11
2022-10-19T17:37:41.797Z,15.61
2022-10-19T17:40:12.399Z,15.86
2022-10-19T17:42:41.543Z,15.77
2022-10-19T17:45:11.926Z,15.44
2022-10-19T17:48:22.770Z,15.66
2022-10-19T17:50:59.195Z,15.53
2022-10-19T17:53:32.608Z,15.30
2022-10-19T17:56:07.064Z,15.01
2022-10-19T18:01:24.260Z,15.19
2022-10-19T18:03:57.233Z,15.17
2022-10-19T18:06:36.010Z,15.30
2022-10-19T18:09:08.609Z,15.06
2022-10-19T18:11:44.004Z,14.92
2022-10-19T18:14:14.799Z,14.72
2022-10-19T18:16:49.951Z,14.73
2022-10-19T18:19:25.618Z,14.86
2022-10-19T18:21:55.945Z,14.90
2022-10-19T18:24:25.309Z,14.71
2022-10-19T18:26:54.780Z,14.91
2022-10-19T18:29:26.895Z,14.77
2022-10-19T18:31:58.033Z,14.55
2022-10-19T18:51:00.101Z,14.42
2022-10-19T18:53:30.039Z,14.76
2022-10-19T18:56:00.100Z,14.56
2022-10-19T18:58:34.162Z,14.39
2022-10-19T19:01:13.269Z,14.35
2022-10-19T19:03:47.681Z,13.86
2022-10-19T19:06:23.675Z,13.99
2022-10-19T19:08:57.779Z,13.99
2022-10-19T19:11:31.803Z,14.45
2022-10-19T19:14:06.797Z,14.36
2022-10-19T19:16:38.676Z,14.13
2022-10-19T19:19:08.573Z,14.12
2022-10-19T19:21:38.669Z,13.83
2022-10-19T19:24:09.509Z,14.07
2022-10-19T19:26:44.102Z,13.83
2022-10-19T19:29:13.482Z,13.81
2022-10-19T19:31:47.227Z,13.81
2022-10-19T19:34:18.181Z,13.77
2022-10-19T19:36:50.234Z,13.81
2022-10-19T19:39:22.659Z,13.68
2022-10-19T19:41:52.432Z,13.39
2022-10-19T19:44:22.383Z,13.62
2022-10-19T19:46:51.830Z,13.84
2022-10-19T19:49:21.272Z,13.91
2022-10-19T19:51:53.385Z,13.76
2022-10-19T19:54:28.539Z,13.05
2022-10-19T19:57:01.475Z,13.41
2022-10-19T19:59:30.724Z,13.63
2022-10-19T20:02:21.197Z,13.57
2022-10-19T20:04:50.056Z,13.31
2022-10-19T20:07:20.631Z,13.36
2022-10-19T20:09:49.351Z,13.51
2022-10-19T20:12:18.848Z,13.28
2022-10-19T20:14:48.711Z,13.52
2022-10-19T20:17:24.665Z,13.18
2022-10-19T20:19:58.404Z,12.99
2022-10-19T20:22:28.842Z,13.26
2022-10-19T20:24:57.436Z,12.73
2022-10-19T20:27:26.048Z,13.13
2022-10-19T20:29:58.621Z,12.89
2022-10-19T20:32:28.024Z,13.29
2022-10-19T20:34:57.177Z,13.20
2022-10-19T20:37:27.675Z,12.84
2022-10-19T20:39:57.184Z,12.69
2022-10-19T20:42:25.651Z,13.14
2022-10-19T20:44:57.972Z,12.85
2022-10-19T20:47:28.365Z,12.81
2022-10-19T20:49:57.128Z,12.89
2022-10-19T20:52:28.491Z,12.62
2022-10-19T20:54:57.445Z,12.76
2022-10-19T20:57:26.085Z,12.92
2022-10-19T20:59:55.843Z,13.07
2022-10-19T21:02:24.623Z,12.95
2022-10-19T21:04:54.589Z,12.67
2022-10-19T21:07:23.489Z,13.07
2022-10-19T21:09:56.954Z,12.66
2022-10-19T21:12:25.463Z,12.65
2022-10-19T21:14:54.409Z,12.97
2022-10-19T21:17:24.753Z,12.99
2022-10-19T21:19:57.203Z,12.95
2022-10-19T21:22:26.072Z,13.02
2022-10-19T21:24:57.906Z,12.92
2022-10-19T21:27:27.736Z,12.91
2022-10-19T21:29:56.196Z,12.67
2022-10-19T21:32:25.871Z,12.52
2022-10-19T21:34:54.271Z,12.64
2022-10-19T21:37:23.151Z,12.73
2022-10-19T21:39:54.539Z,12.69
2022-10-19T21:42:27.098Z,12.76
2022-10-19T21:45:01.401Z,12.70
2022-10-19T21:47:44.537Z,12.40
2022-10-19T21:50:20.445Z,12.35
2022-10-19T21:52:50.133Z,12.41
2022-10-19T21:55:24.074Z,12.30
2022-10-19T21:57:54.551Z,12.69
2022-10-19T22:00:25.162Z,12.44
2022-10-19T22:02:55.166Z,12.45
2022-10-19T22:05:25.182Z,12.53
2022-10-19T22:07:55.249Z,12.24
2022-10-19T22:10:27.573Z,12.54
2022-10-19T22:12:59.991Z,12.24
2022-10-19T22:15:43.253Z,12.20
2022-10-19T22:18:14.623Z,12.07
2022-10-19T22:20:44.838Z,12.50
2022-10-19T22:23:15.081Z,12.77
2022-10-19T22:25:47.673Z,12.52
2022-10-19T22:28:24.431Z,12.56
2022-10-19T22:31:09.495Z,12.20
2022-10-19T22:33:40.642Z,12.41
2022-10-19T22:36:18.298Z,12.23
2022-10-19T22:38:49.949Z,12.22
2022-10-19T22:41:18.667Z,12.54
2022-10-19T22:43:53.368Z,12.19
2022-10-19T22:46:25.442Z,12.13
2022-10-19T22:48:54.204Z,12.20
2022-10-19T22:51:23.736Z,12.15
2022-10-19T22:53:52.346Z,12.30
2022-10-19T22:56:21.140Z,12.18
2022-10-19T22:58:52.154Z,12.09
2022-10-19T23:01:21.795Z,12.24
2022-10-19T23:03:51.232Z,12.25
2022-10-19T23:06:21.891Z,12.24
2022-10-19T23:08:51.194Z,12.08
2022-10-19T23:11:20.934Z,12.33
2022-10-19T23:13:51.531Z,12.31
2022-10-19T23:16:20.862Z,12.09
2022-10-19T23:18:49.415Z,12.00
2022-10-19T23:21:18.474Z,12.07
2022-10-19T23:23:47.826Z,11.90
2022-10-19T23:26:18.758Z,11.99
2022-10-19T23:28:52.755Z,12.08
2022-10-19T23:31:25.448Z,11.66
2022-10-19T23:33:55.449Z,12.00
2022-10-19T23:36:27.073Z,11.83
2022-10-19T23:38:58.855Z,11.77
2022-10-19T23:41:31.315Z,11.91
2022-10-19T23:44:01.420Z,11.39
2022-10-19T23:46:31.230Z,11.84
2022-10-19T23:49:00.424Z,11.74
2022-10-19T23:51:29.661Z,11.70
2022-10-19T23:54:03.666Z,11.83
2022-10-19T23:56:33.254Z,11.71
